Time;durP1;ratioP1;P1;durP2;ratioP2;P2;SDS_P1;SDS_P2;PMS_P1;PMS_P2;Temp;Humidity;BMP_temperature;BMP_pressure;BME280_temperature;BME280_humidity;BME280_pressure;Samples;Min_cycle;Max_cycle;Signal;HPM_P1;HPM_P2
2024/04/15 00:01:03;;;;;;;0.87;0.50;;;13.40;73.40;;;;;;5389813;26;20297;-67
2024/04/15 00:03:29;;;;;;;0.40;0.40;;;13.40;73.50;;;;;;5397440;26;20334;-66
2024/04/15 00:06:00;;;;;;;1.47;0.60;;;13.40;73.50;;;;;;5379618;26;20340;-66
2024/04/15 00:08:26;;;;;;;1.20;0.67;;;13.40;73.50;;;;;;5379677;26;20261;-66
2024/04/15 00:10:55;;;;;;;0.67;0.40;;;13.40;73.60;;;;;;5375133;26;20286;-65
2024/04/15 00:13:21;;;;;;;0.87;0.40;;;13.40;73.70;;;;;;5375243;26;20579;-66
2024/04/15 00:15:56;;;;;;;0.40;0.40;;;13.40;73.70;;;;;;5377519;26;20428;-66
2024/04/15 00:18:22;;;;;;;0.40;0.40;;;13.40;73.70;;;;;;5355820;26;20249;-66
2024/04/15 00:21:02;;;;;;;1.03;0.50;;;13.40;73.70;;;;;;5379953;26;20243;-66
2024/04/15 00:23:29;;;;;;;0.70;0.70;;;13.40;73.70;;;;;;5382463;26;20235;-66
2024/04/15 00:25:58;;;;;;;1.23;0.50;;;13.50;73.80;;;;;;5382412;26;20286;-66
2024/04/15 00:28:25;;;;;;;0.83;0.57;;;13.40;73.90;;;;;;5380686;26;20229;-66
2024/04/15 00:30:54;;;;;;;0.30;0.30;;;13.40;73.90;;;;;;5381512;26;20280;-66
2024/04/15 00:33:20;;;;;;;0.40;0.40;;;13.40;74.00;;;;;;5385730;26;20780;-66
2024/04/15 00:35:50;;;;;;;0.73;0.70;;;13.40;74.10;;;;;;5384680;26;20380;-65
2024/04/15 00:38:19;;;;;;;0.30;0.30;;;13.40;74.20;;;;;;5386505;26;20255;-65
2024/04/15 00:40:47;;;;;;;0.53;0.50;;;13.40;74.20;;;;;;5376044;26;20632;-65
2024/04/15 00:43:13;;;;;;;0.57;0.47;;;13.40;74.30;;;;;;5386449;26;20258;-64
2024/04/15 00:45:42;;;;;;;0.50;0.50;;;13.40;74.30;;;;;;5383146;26;20268;-66
2024/04/15 00:48:14;;;;;;;0.50;0.50;;;13.40;74.50;;;;;;5389869;26;20277;-66
2024/04/15 00:50:45;;;;;;;1.67;0.60;;;13.40;74.40;;;;;;5382479;26;20237;-66
2024/04/15 00:53:14;;;;;;;1.60;0.50;;;13.30;74.50;;;;;;5392635;26;20230;-66
2024/04/15 00:55:49;;;;;;;1.23;0.47;;;13.30;74.60;;;;;;5389546;26;20363;-66
2024/04/15 00:58:16;;;;;;;0.50;0.40;;;13.30;74.60;;;;;;5396823;26;20743;-67
2024/04/15 01:03:28;;;;;;;0.60;0.60;;;13.30;74.90;;;;;;5545811;21;20293;-66
2024/04/15 01:05:54;;;;;;;0.80;0.63;;;13.30;75.00;;;;;;5374096;26;20316;-67
2024/04/15 01:08:23;;;;;;;0.40;0.40;;;13.30;75.10;;;;;;5362402;26;20684;-67
2024/04/15 01:10:52;;;;;;;1.47;0.50;;;13.30;75.20;;;;;;5349231;26;20285;-66
2024/04/15 01:13:21;;;;;;;0.97;0.63;;;12.70;74.60;;;;;;5370658;26;20294;-66
2024/04/15 01:15:47;;;;;;;0.87;0.60;;;13.20;75.40;;;;;;5378063;26;20296;-66
2024/04/15 01:18:16;;;;;;;3.50;0.70;;;13.20;75.60;;;;;;5377505;26;20238;-67
2024/04/15 01:20:42;;;;;;;1.20;0.90;;;13.10;75.70;;;;;;5379739;26;20230;-67
2024/04/15 01:23:16;;;;;;;0.63;0.47;;;13.10;75.90;;;;;;5376811;26;20269;-67
2024/04/15 01:25:45;;;;;;;2.50;0.90;;;13.10;76.00;;;;;;5380159;26;20233;-67
2024/04/15 01:28:18;;;;;;;1.93;0.83;;;13.10;76.10;;;;;;5377280;26;20631;-67
2024/04/15 01:30:45;;;;;;;0.60;0.60;;;13.10;76.10;;;;;;5376043;26;20249;-66
2024/04/15 01:33:13;;;;;;;1.20;0.67;;;13.10;76.10;;;;;;5371398;26;20354;-67
2024/04/15 01:35:40;;;;;;;1.17;0.77;;;13.10;76.50;;;;;;5365313;26;20288;-66
2024/04/15 01:38:08;;;;;;;1.20;0.70;;;13.00;76.90;;;;;;5373615;26;20238;-66
2024/04/15 01:40:34;;;;;;;1.63;0.83;;;13.00;77.00;;;;;;5365656;26;20372;-66
2024/04/15 01:43:06;;;;;;;1.80;0.70;;;13.00;77.20;;;;;;5375354;26;21175;-66
2024/04/15 01:45:32;;;;;;;0.60;0.57;;;12.90;77.20;;;;;;5372407;26;20238;-67
2024/04/15 01:48:01;;;;;;;0.70;0.70;;;12.90;77.30;;;;;;5374548;26;20434;-66
2024/04/15 01:50:27;;;;;;;1.07;0.60;;;12.90;77.50;;;;;;5379050;26;20234;-67
2024/04/15 01:52:56;;;;;;;0.50;0.50;;;12.80;77.50;;;;;;5364499;26;20238;-66
2024/04/15 01:55:22;;;;;;;1.10;0.63;;;12.80;77.70;;;;;;5370352;26;20276;-67
2024/04/15 01:57:51;;;;;;;1.73;0.90;;;12.80;78.30;;;;;;5376745;26;20281;-66
2024/04/15 02:00:20;;;;;;;2.40;0.80;;;12.70;78.40;;;;;;5366969;26;20775;-66
2024/04/15 02:02:49;;;;;;;1.47;0.70;;;12.70;78.50;;;;;;5376484;26;20242;-66
2024/04/15 02:05:15;;;;;;;0.97;0.60;;;12.70;78.80;;;;;;5378910;26;20284;-66
2024/04/15 02:07:44;;;;;;;1.50;0.77;;;12.70;79.00;;;;;;5379323;26;20281;-66
2024/04/15 02:10:10;;;;;;;1.37;0.70;;;12.70;79.00;;;;;;5377907;26;20762;-67
2024/04/15 02:12:39;;;;;;;0.80;0.50;;;12.70;79.20;;;;;;5377273;26;20287;-67
2024/04/15 02:15:05;;;;;;;0.70;0.60;;;12.70;79.10;;;;;;5377305;26;20229;-66
2024/04/15 02:17:37;;;;;;;1.37;0.80;;;12.70;79.20;;;;;;5362062;26;20242;-66
2024/04/15 02:20:03;;;;;;;1.83;0.50;;;12.70;79.50;;;;;;5378105;26;20233;-67
2024/04/15 02:22:32;;;;;;;3.23;0.70;;;12.70;79.60;;;;;;5378302;26;20272;-67
2024/04/15 02:24:58;;;;;;;1.43;0.50;;;12.70;79.70;;;;;;5378586;26;20229;-67
2024/04/15 02:27:27;;;;;;;1.13;0.60;;;12.70;79.80;;;;;;5376616;26;20350;-67
2024/04/15 02:29:53;;;;;;;0.83;0.50;;;12.70;79.80;;;;;;5375181;26;20238;-68
2024/04/15 02:32:22;;;;;;;0.97;0.60;;;12.70;79.90;;;;;;5372825;26;20362;-66
2024/04/15 02:34:50;;;;;;;1.03;0.53;;;12.70;80.00;;;;;;5373455;26;20292;-67
2024/04/15 02:37:19;;;;;;;1.27;0.60;;;12.70;80.00;;;;;;5375876;26;20242;-66
2024/04/15 02:39:46;;;;;;;0.80;0.67;;;12.70;80.10;;;;;;5372863;26;20281;-66
2024/04/15 02:42:15;;;;;;;0.87;0.50;;;12.70;80.20;;;;;;5377010;26;20296;-67
2024/04/15 02:44:41;;;;;;;1.57;0.43;;;12.70;80.30;;;;;;5377027;26;20280;-67
2024/04/15 02:47:09;;;;;;;1.40;0.70;;;12.70;80.40;;;;;;5375264;26;20268;-67
2024/04/15 02:49:35;;;;;;;1.40;0.63;;;12.70;80.40;;;;;;5377651;26;20517;-67
2024/04/15 02:52:07;;;;;;;0.70;0.40;;;12.70;80.40;;;;;;5376524;26;20230;-67
2024/04/15 02:54:33;;;;;;;0.83;0.60;;;12.80;80.40;;;;;;5378064;26;20402;-67
2024/04/15 02:57:02;;;;;;;0.87;0.43;;;12.80;80.40;;;;;;5359980;26;20292;-67
2024/04/15 02:59:28;;;;;;;0.73;0.73;;;12.70;80.60;;;;;;5353354;26;20260;-66
2024/04/15 03:01:57;;;;;;;1.90;0.70;;;12.70;80.70;;;;;;5378094;26;20285;-67
2024/04/15 03:04:23;;;;;;;0.60;0.50;;;12.70;80.70;;;;;;5370944;26;20245;-67
2024/04/15 03:06:54;;;;;;;0.57;0.40;;;12.70;80.80;;;;;;5374854;26;20269;-67
2024/04/15 03:09:25;;;;;;;1.60;0.60;;;12.70;80.90;;;;;;5368621;26;20239;-67
2024/04/15 03:11:54;;;;;;;0.60;0.60;;;12.70;81.10;;;;;;5377560;26;20751;-67
2024/04/15 03:14:20;;;;;;;1.63;0.87;;;12.60;81.10;;;;;;5375637;26;20363;-67
2024/04/15 03:16:49;;;;;;;1.13;0.50;;;12.60;81.10;;;;;;5370691;26;20278;-67
2024/04/15 03:19:15;;;;;;;1.37;0.57;;;12.60;81.20;;;;;;5365620;26;20283;-66
2024/04/15 03:21:44;;;;;;;1.97;0.90;;;12.60;81.30;;;;;;5374607;26;20560;-66
2024/04/15 03:24:11;;;;;;;2.30;0.80;;;12.60;81.50;;;;;;5376314;26;20234;-66
2024/04/15 03:26:42;;;;;;;1.80;0.80;;;12.50;81.50;;;;;;5375917;26;20809;-66
2024/04/15 03:29:08;;;;;;;2.87;0.90;;;12.50;81.70;;;;;;5367364;26;20807;-66
2024/04/15 03:31:37;;;;;;;1.87;0.70;;;12.40;81.90;;;;;;5366381;26;20253;-66
2024/04/15 03:34:03;;;;;;;2.60;0.87;;;12.40;82.20;;;;;;5368972;26;20612;-67
2024/04/15 03:36:32;;;;;;;1.13;0.87;;;12.40;82.30;;;;;;5375906;26;20556;-66
2024/04/15 03:39:01;;;;;;;0.97;0.60;;;12.40;82.40;;;;;;5373034;26;20350;-66
2024/04/15 03:41:29;;;;;;;0.57;0.57;;;12.40;82.40;;;;;;5366083;26;20252;-65
2024/04/15 03:44:02;;;;;;;0.40;0.40;;;12.30;82.50;;;;;;5375229;26;20315;-67
2024/04/15 03:46:28;;;;;;;0.50;0.50;;;12.40;82.60;;;;;;5370632;26;20300;-67
2024/04/15 03:48:57;;;;;;;4.27;1.30;;;12.40;82.70;;;;;;5367308;26;20247;-66
2024/04/15 03:51:23;;;;;;;0.90;0.70;;;12.40;82.90;;;;;;5374731;26;20303;-66
2024/04/15 03:53:52;;;;;;;1.40;0.70;;;12.40;82.90;;;;;;5346833;26;20234;-66
2024/04/15 03:56:19;;;;;;;2.07;0.60;;;12.40;83.00;;;;;;5374558;26;20488;-66
2024/04/15 03:58:47;;;;;;;0.97;0.60;;;12.40;83.10;;;;;;5366314;26;20267;-66
2024/04/15 04:01:16;;;;;;;1.40;0.80;;;12.40;83.20;;;;;;5367126;26;20232;-67
2024/04/15 04:03:45;;;;;;;0.67;0.60;;;12.20;83.10;;;;;;5369834;26;20526;-67
2024/04/15 04:06:11;;;;;;;1.17;0.60;;;12.30;83.20;;;;;;5373685;26;20238;-66
2024/04/15 04:08:41;;;;;;;0.60;0.60;;;12.40;83.30;;;;;;5395633;26;20257;-67
2024/04/15 04:11:07;;;;;;;1.50;0.50;;;12.40;83.30;;;;;;5353908;26;20351;-67
2024/04/15 04:13:36;;;;;;;1.57;0.83;;;12.40;83.20;;;;;;5362354;26;20394;-66
2024/04/15 04:16:03;;;;;;;2.97;0.73;;;12.40;83.50;;;;;;5360951;26;20268;-66
2024/04/15 04:18:35;;;;;;;1.13;0.63;;;12.30;83.50;;;;;;5375476;26;20781;-66
2024/04/15 04:21:04;;;;;;;0.90;0.70;;;12.40;83.70;;;;;;5377226;26;20228;-66
2024/04/15 04:23:30;;;;;;;1.87;0.83;;;12.40;83.60;;;;;;5367668;26;20230;-66
2024/04/15 04:25:59;;;;;;;0.80;0.73;;;12.40;83.60;;;;;;5371867;26;20615;-66
2024/04/15 04:28:25;;;;;;;2.80;1.00;;;12.40;83.60;;;;;;5369385;26;20404;-66
2024/04/15 04:30:53;;;;;;;0.80;0.70;;;12.40;83.80;;;;;;5374665;26;20639;-66
2024/04/15 04:33:20;;;;;;;3.63;0.90;;;12.40;83.90;;;;;;5377290;26;20298;-66
2024/04/15 04:35:51;;;;;;;2.00;0.83;;;12.30;83.90;;;;;;5378084;26;20248;-67
2024/04/15 04:38:17;;;;;;;1.40;0.83;;;12.40;84.10;;;;;;5377839;26;20283;-67
2024/04/15 04:40:46;;;;;;;1.00;0.70;;;12.40;84.10;;;;;;5379107;26;20291;-67
2024/04/15 04:43:12;;;;;;;3.23;0.73;;;12.40;84.10;;;;;;5378218;26;20228;-67
2024/04/15 04:45:41;;;;;;;0.90;0.90;;;12.40;85.00;;;;;;5379250;26;20236;-67
2024/04/15 04:48:08;;;;;;;1.47;0.70;;;12.40;85.10;;;;;;5359807;26;20585;-67
2024/04/15 04:50:37;;;;;;;1.03;0.70;;;12.40;84.40;;;;;;5376718;26;20244;-66
2024/04/15 04:53:05;;;;;;;3.10;0.80;;;12.40;84.60;;;;;;5378924;26;20248;-67
2024/04/15 04:55:36;;;;;;;1.03;0.67;;;12.30;84.60;;;;;;5379542;26;20745;-66
2024/04/15 04:58:03;;;;;;;1.37;0.90;;;12.30;84.90;;;;;;5379471;26;20686;-67
2024/04/15 05:00:32;;;;;;;1.30;1.07;;;12.30;84.90;;;;;;5378545;26;20699;-66
2024/04/15 05:02:58;;;;;;;0.80;0.80;;;12.40;85.00;;;;;;5378872;26;20289;-67
2024/04/15 05:05:27;;;;;;;1.70;0.67;;;12.40;85.00;;;;;;5379427;26;20244;-66
2024/04/15 05:07:53;;;;;;;1.40;0.80;;;12.40;84.90;;;;;;5379390;26;20759;-67
2024/04/15 05:10:24;;;;;;;3.50;0.80;;;12.40;84.90;;;;;;5374365;26;20271;-67
2024/04/15 05:12:51;;;;;;;1.83;0.80;;;12.40;85.00;;;;;;5362495;26;20282;-67
2024/04/15 05:15:19;;;;;;;0.67;0.60;;;12.40;85.10;;;;;;5371201;26;20244;-67
2024/04/15 05:17:46;;;;;;;1.67;0.83;;;12.40;85.10;;;;;;5363614;26;20363;-67
2024/04/15 05:20:14;;;;;;;1.90;0.93;;;12.40;85.10;;;;;;5375888;26;20292;-67
2024/04/15 05:22:40;;;;;;;0.60;0.60;;;12.50;85.10;;;;;;5371196;26;20284;-66
2024/04/15 05:25:09;;;;;;;2.40;0.90;;;12.50;85.20;;;;;;5369029;26;20590;-67
2024/04/15 05:27:38;;;;;;;1.40;0.80;;;12.40;85.20;;;;;;5377122;26;20240;-67
2024/04/15 05:30:08;;;;;;;0.93;0.83;;;12.40;85.30;;;;;;5370752;26;20299;-67
2024/04/15 05:32:34;;;;;;;1.67;0.80;;;12.40;86.10;;;;;;5372830;26;20374;-67
2024/04/15 05:35:03;;;;;;;1.67;0.70;;;12.40;85.40;;;;;;5372585;26;20285;-65
2024/04/15 05:37:29;;;;;;;1.57;0.80;;;12.50;85.40;;;;;;5376906;26;20267;-67
2024/04/15 05:39:58;;;;;;;1.20;0.80;;;12.50;85.40;;;;;;5376224;26;20350;-67
2024/04/15 05:42:24;;;;;;;1.50;1.17;;;12.50;85.60;;;;;;5374048;26;20414;-66
2024/04/15 05:44:56;;;;;;;0.57;0.57;;;12.50;85.60;;;;;;5362354;26;20638;-66
2024/04/15 05:47:22;;;;;;;1.33;0.70;;;12.50;85.60;;;;;;5374898;26;20263;-66
2024/04/15 05:49:51;;;;;;;2.73;0.80;;;12.60;85.60;;;;;;5347873;26;20273;-66
2024/04/15 05:52:17;;;;;;;1.57;1.00;;;12.60;85.50;;;;;;5362801;26;20229;-66
2024/04/15 05:54:46;;;;;;;3.77;1.00;;;12.60;85.50;;;;;;5375798;26;20232;-66
2024/04/15 05:57:12;;;;;;;1.93;1.00;;;12.60;85.60;;;;;;5375725;26;20230;-66
2024/04/15 05:59:41;;;;;;;3.27;1.00;;;12.50;85.70;;;;;;5361735;26;20247;-66
2024/04/15 06:02:09;;;;;;;1.90;0.80;;;12.50;85.70;;;;;;5365321;26;20343;-66
2024/04/15 06:04:38;;;;;;;2.70;1.00;;;12.50;85.60;;;;;;5374660;26;20257;-66
2024/04/15 06:07:04;;;;;;;1.17;0.90;;;12.60;85.60;;;;;;5363224;26;20241;-66
2024/04/15 06:09:36;;;;;;;2.00;0.83;;;12.50;85.50;;;;;;5381712;26;20296;-66
2024/04/15 06:12:02;;;;;;;2.13;0.90;;;12.50;85.60;;;;;;5375131;26;20252;-66
2024/04/15 06:14:31;;;;;;;1.47;0.83;;;12.50;85.60;;;;;;5367904;26;20412;-66
2024/04/15 06:16:57;;;;;;;1.93;0.90;;;12.50;85.50;;;;;;5380834;26;20236;-66
2024/04/15 06:19:29;;;;;;;2.23;0.70;;;12.50;85.40;;;;;;5362251;26;20780;-66
2024/04/15 06:21:55;;;;;;;1.77;0.70;;;12.50;85.40;;;;;;5372849;26;20237;-66
2024/04/15 06:24:24;;;;;;;2.53;0.87;;;12.50;85.30;;;;;;5368153;26;20287;-66
2024/04/15 06:26:50;;;;;;;3.83;1.00;;;12.60;85.20;;;;;;5369214;26;20233;-66
2024/04/15 06:29:19;;;;;;;1.83;0.80;;;12.60;85.10;;;;;;5369468;26;20244;-66
2024/04/15 06:31:45;;;;;;;1.17;0.60;;;12.60;85.00;;;;;;5364121;26;20360;-66
2024/04/15 06:34:14;;;;;;;2.00;0.63;;;12.60;84.90;;;;;;5364428;26;20248;-66
2024/04/15 06:36:43;;;;;;;1.40;0.80;;;12.70;85.00;;;;;;5371913;26;20279;-66
2024/04/15 06:39:11;;;;;;;1.57;0.70;;;12.70;84.90;;;;;;5373768;26;20264;-65
2024/04/15 06:41:38;;;;;;;1.43;0.93;;;12.80;84.90;;;;;;5370795;26;20692;-67
2024/04/15 06:44:10;;;;;;;0.97;0.73;;;12.80;84.70;;;;;;5377029;26;20739;-66
2024/04/15 06:46:36;;;;;;;3.77;0.97;;;12.80;84.60;;;;;;5374145;26;20242;-67
2024/04/15 06:49:04;;;;;;;1.80;0.97;;;12.90;84.30;;;;;;5373357;26;20241;-67
2024/04/15 06:51:31;;;;;;;2.30;0.80;;;12.90;84.80;;;;;;5372179;26;20233;-66
2024/04/15 06:54:02;;;;;;;0.70;0.60;;;12.90;83.90;;;;;;5374403;26;20336;-67
2024/04/15 06:56:28;;;;;;;1.20;0.93;;;13.00;83.70;;;;;;5367210;26;20698;-67
2024/04/15 06:58:57;;;;;;;0.80;0.80;;;13.10;83.70;;;;;;5353739;26;20242;-67
2024/04/15 07:01:23;;;;;;;1.80;0.80;;;13.20;83.40;;;;;;5370613;26;20723;-66
2024/04/15 07:03:52;;;;;;;1.13;0.80;;;13.20;83.10;;;;;;5371189;26;20587;-66
2024/04/15 07:06:18;;;;;;;1.43;0.80;;;13.30;83.10;;;;;;5373969;26;20264;-67
2024/04/15 07:08:47;;;;;;;1.17;1.07;;;13.30;82.70;;;;;;5375203;26;20287;-67
2024/04/15 07:11:16;;;;;;;0.80;0.53;;;13.40;82.40;;;;;;5376427;26;20300;-67
2024/04/15 07:13:45;;;;;;;0.70;0.70;;;13.40;82.10;;;;;;5375236;26;20246;-66
2024/04/15 07:16:11;;;;;;;1.60;0.80;;;13.40;82.00;;;;;;5358111;26;20391;-66
2024/04/15 07:18:40;;;;;;;1.17;0.50;;;13.50;81.90;;;;;;5373605;26;20246;-68
2024/04/15 07:21:06;;;;;;;1.20;0.87;;;13.50;81.60;;;;;;5374630;26;20305;-68
2024/04/15 07:23:35;;;;;;;1.13;0.53;;;13.50;81.40;;;;;;5373723;26;20239;-68
2024/04/15 07:26:01;;;;;;;0.60;0.60;;;13.50;81.30;;;;;;5371374;26;20761;-68
2024/04/15 07:28:33;;;;;;;1.13;0.80;;;13.50;81.20;;;;;;5374257;26;20249;-67
2024/04/15 07:31:00;;;;;;;0.90;0.80;;;13.50;80.70;;;;;;5364556;26;20290;-68
2024/04/15 07:33:29;;;;;;;1.70;0.90;;;13.60;80.70;;;;;;5385903;26;20245;-68
2024/04/15 07:35:55;;;;;;;0.83;0.70;;;13.60;80.90;;;;;;5374218;26;20233;-66
2024/04/15 07:38:24;;;;;;;1.53;0.90;;;13.60;79.70;;;;;;5373435;26;20242;-65
2024/04/15 07:40:51;;;;;;;1.23;1.03;;;13.50;78.70;;;;;;5374264;26;20244;-66
2024/04/15 07:43:20;;;;;;;2.50;0.97;;;13.50;78.60;;;;;;5384086;26;20279;-66
2024/04/15 07:45:49;;;;;;;2.20;0.73;;;13.40;78.40;;;;;;5374027;26;20322;-66
2024/04/15 07:48:18;;;;;;;1.40;0.83;;;13.40;78.10;;;;;;5376062;26;20353;-67
2024/04/15 07:50:44;;;;;;;1.80;0.80;;;13.40;77.80;;;;;;5367604;26;20269;-67
2024/04/15 07:53:13;;;;;;;1.03;0.70;;;13.40;77.50;;;;;;5370593;26;20315;-67
2024/04/15 07:55:43;;;;;;;0.73;0.70;;;13.50;77.40;;;;;;5372481;26;20302;-66
2024/04/15 07:58:12;;;;;;;3.07;1.00;;;13.50;77.40;;;;;;5365141;26;20587;-66
2024/04/15 08:00:39;;;;;;;0.67;0.67;;;13.60;76.70;;;;;;5366626;26;20238;-67
2024/04/15 08:03:10;;;;;;;3.17;0.83;;;13.60;76.60;;;;;;5372330;26;20317;-67
2024/04/15 08:05:37;;;;;;;0.77;0.70;;;13.70;76.50;;;;;;5367468;26;20424;-67
2024/04/15 08:08:06;;;;;;;1.10;0.60;;;13.70;76.10;;;;;;5372573;26;20249;-68
2024/04/15 08:10:33;;;;;;;1.73;0.80;;;13.70;75.70;;;;;;5375328;26;20342;-67
2024/04/15 08:13:05;;;;;;;1.27;0.70;;;13.70;75.60;;;;;;5372942;26;20310;-68
2024/04/15 08:15:31;;;;;;;1.50;0.50;;;13.70;75.60;;;;;;5363863;26;20253;-66
2024/04/15 08:18:00;;;;;;;2.07;0.70;;;13.80;75.60;;;;;;5369975;26;20247;-68
2024/04/15 08:20:29;;;;;;;1.17;0.70;;;13.90;75.50;;;;;;5369523;26;20266;-67
2024/04/15 08:22:57;;;;;;;1.90;0.80;;;14.10;75.30;;;;;;5366222;26;20246;-66
2024/04/15 08:25:24;;;;;;;0.63;0.63;;;14.20;75.00;;;;;;5370086;26;20231;-67
2024/04/15 08:27:52;;;;;;;2.97;0.73;;;14.30;74.80;;;;;;5367565;26;20243;-67
2024/04/15 08:30:19;;;;;;;1.70;1.10;;;14.30;74.20;;;;;;5357484;26;20279;-67
2024/04/15 08:32:50;;;;;;;1.50;1.00;;;14.30;73.70;;;;;;5363525;26;20254;-67
2024/04/15 08:35:17;;;;;;;1.53;0.90;;;14.30;73.60;;;;;;5367127;26;20231;-67
2024/04/15 08:37:48;;;;;;;1.73;0.90;;;14.30;73.10;;;;;;5360717;26;20572;-67
2024/04/15 08:40:15;;;;;;;1.00;0.90;;;14.40;72.90;;;;;;5373498;26;20231;-67
2024/04/15 08:42:52;;;;;;;3.03;1.03;;;14.50;72.50;;;;;;5373783;26;20294;-66
2024/04/15 08:45:19;;;;;;;1.40;0.90;;;14.50;72.20;;;;;;5373409;26;20575;-67
2024/04/15 08:47:52;;;;;;;0.80;0.80;;;14.50;71.30;;;;;;5371854;26;20240;-67
2024/04/15 08:50:20;;;;;;;1.27;0.80;;;14.50;71.20;;;;;;5373327;26;20442;-66
2024/04/15 08:52:53;;;;;;;1.90;0.70;;;14.40;70.80;;;;;;5368920;26;20251;-67
2024/04/15 08:55:21;;;;;;;1.17;0.90;;;14.40;70.50;;;;;;5369277;26;20747;-67
2024/04/15 08:57:51;;;;;;;0.83;0.80;;;14.40;70.30;;;;;;5373668;26;20672;-68
2024/04/15 09:00:18;;;;;;;1.40;0.90;;;14.40;70.30;;;;;;5365635;26;20389;-67
2024/04/15 09:02:47;;;;;;;1.27;0.73;;;14.50;70.10;;;;;;5361782;26;20282;-67
2024/04/15 09:05:14;;;;;;;1.10;0.80;;;14.60;70.10;;;;;;5371285;26;20231;-67
2024/04/15 09:07:42;;;;;;;3.70;0.77;;;14.70;69.20;;;;;;5369876;26;20236;-68
2024/04/15 09:10:15;;;;;;;1.60;0.80;;;14.90;68.90;;;;;;5375133;26;20239;-67
2024/04/15 09:12:47;;;;;;;1.50;0.73;;;15.00;68.40;;;;;;5360912;26;20276;-67
2024/04/15 09:15:15;;;;;;;1.13;0.80;;;15.20;68.20;;;;;;5375885;26;20243;-67
2024/04/15 09:17:45;;;;;;;0.63;0.63;;;15.30;67.90;;;;;;5376654;26;20278;-67
2024/04/15 09:20:12;;;;;;;0.93;0.77;;;15.40;67.70;;;;;;5373663;26;20248;-67
2024/04/15 09:22:40;;;;;;;1.30;0.73;;;15.60;67.00;;;;;;5377461;26;20333;-67
2024/04/15 09:25:07;;;;;;;0.73;0.60;;;15.70;66.10;;;;;;5374227;26;20326;-66
2024/04/15 09:27:38;;;;;;;0.70;0.60;;;15.80;65.70;;;;;;5374388;26;20349;-66
2024/04/15 09:30:06;;;;;;;0.70;0.50;;;15.90;65.80;;;;;;5372169;26;20533;-66
2024/04/15 09:32:36;;;;;;;1.07;0.70;;;16.00;65.60;;;;;;5369653;26;20579;-66
2024/04/15 09:35:07;;;;;;;0.90;0.70;;;16.10;64.90;;;;;;5375384;26;20352;-67
2024/04/15 09:37:34;;;;;;;1.30;0.90;;;16.20;64.60;;;;;;5377122;26;20236;-67
2024/04/15 09:40:07;;;;;;;0.80;0.80;;;16.30;64.40;;;;;;5377852;26;20232;-67
2024/04/15 09:42:37;;;;;;;0.67;0.67;;;16.30;64.50;;;;;;5374407;26;20549;-67
2024/04/15 09:45:10;;;;;;;1.80;1.20;;;16.40;63.90;;;;;;5376554;26;20349;-68
2024/04/15 09:47:40;;;;;;;1.77;1.00;;;16.50;63.40;;;;;;5377361;26;20236;-68
2024/04/15 09:50:09;;;;;;;2.47;0.90;;;16.50;62.80;;;;;;5359866;26;20244;-67
2024/04/15 09:52:39;;;;;;;0.60;0.60;;;16.60;62.60;;;;;;5375618;26;20689;-68
2024/04/15 09:55:10;;;;;;;1.07;0.60;;;16.70;62.70;;;;;;5375519;26;20252;-68
2024/04/15 09:57:44;;;;;;;0.53;0.53;;;16.90;62.90;;;;;;5376615;26;20408;-68
2024/04/15 10:00:18;;;;;;;0.63;0.60;;;17.00;62.80;;;;;;5366799;26;20237;-68
2024/04/15 10:02:52;;;;;;;0.70;0.50;;;17.20;62.50;;;;;;5377174;26;20236;-67
2024/04/15 10:05:25;;;;;;;0.50;0.50;;;17.30;62.30;;;;;;5377912;26;20241;-67
2024/04/15 10:07:53;;;;;;;0.80;0.70;;;17.40;62.20;;;;;;5367196;26;20258;-67
2024/04/15 10:10:22;;;;;;;0.53;0.53;;;17.60;61.70;;;;;;5353827;26;20704;-67
2024/04/15 10:12:53;;;;;;;1.70;1.08;;;17.80;61.40;;;;;;5374776;26;20411;-68
2024/04/15 10:15:23;;;;;;;0.70;0.70;;;17.90;60.70;;;;;;5375748;26;20248;-67
2024/04/15 10:17:56;;;;;;;0.90;0.90;;;17.90;60.50;;;;;;5374471;26;20254;-67
2024/04/15 10:20:31;;;;;;;0.70;0.70;;;17.90;60.40;;;;;;5366295;26;20259;-67
2024/04/15 10:22:58;;;;;;;0.60;0.60;;;17.90;59.80;;;;;;5371979;26;20236;-67
2024/04/15 10:25:28;;;;;;;0.93;0.65;;;17.90;59.60;;;;;;5364119;26;20243;-67
2024/04/15 10:27:58;;;;;;;0.82;0.73;;;17.80;59.40;;;;;;5370669;26;20234;-68
2024/04/15 10:30:29;;;;;;;0.98;0.80;;;17.70;59.20;;;;;;5372071;26;20234;-66
2024/04/15 10:32:58;;;;;;;0.70;0.70;;;17.60;58.70;;;;;;5374952;26;20280;-67
2024/04/15 10:35:28;;;;;;;0.70;0.70;;;17.50;58.70;;;;;;5375766;26;20354;-67
2024/04/15 10:37:58;;;;;;;1.70;0.80;;;17.40;58.80;;;;;;5370481;26;20273;-66
2024/04/15 10:40:32;;;;;;;1.10;0.40;;;17.20;58.80;;;;;;5363088;26;20814;-66
2024/04/15 10:43:01;;;;;;;0.77;0.77;;;17.10;58.70;;;;;;5372107;26;20744;-67
2024/04/15 10:45:30;;;;;;;0.50;0.50;;;17.00;58.60;;;;;;5375408;26;20283;-66
2024/04/15 10:47:56;;;;;;;0.40;0.40;;;16.90;58.50;;;;;;5360138;26;20259;-67
2024/04/15 10:50:28;;;;;;;2.00;0.80;;;16.80;58.50;;;;;;5370319;26;20902;-67
2024/04/15 10:52:54;;;;;;;0.70;0.70;;;16.70;58.40;;;;;;5374161;26;20850;-67
2024/04/15 10:55:25;;;;;;;0.60;0.50;;;16.70;58.60;;;;;;5371841;26;20237;-67
2024/04/15 10:57:51;;;;;;;1.43;0.70;;;16.80;58.70;;;;;;5379697;26;20263;-66
2024/04/15 11:00:24;;;;;;;0.63;0.60;;;16.90;58.30;;;;;;5374182;26;20729;-66
2024/04/15 11:02:52;;;;;;;0.50;0.50;;;17.00;57.90;;;;;;5365321;26;20233;-66
2024/04/15 11:05:23;;;;;;;0.50;0.50;;;17.00;57.50;;;;;;5363656;26;20330;-67
2024/04/15 11:07:51;;;;;;;1.03;0.63;;;17.00;57.40;;;;;;5391297;26;20260;-66
2024/04/15 11:10:20;;;;;;;0.67;0.50;;;17.10;57.40;;;;;;5361818;26;20298;-67
2024/04/15 11:12:51;;;;;;;0.40;0.40;;;17.30;57.50;;;;;;5365424;26;20263;-67
2024/04/15 11:15:24;;;;;;;0.73;0.73;;;17.40;57.50;;;;;;5363630;26;20338;-67
2024/04/15 11:17:52;;;;;;;0.83;0.60;;;17.40;57.40;;;;;;5366436;26;20525;-67
2024/04/15 11:20:22;;;;;;;0.63;0.60;;;17.30;56.90;;;;;;5359434;26;20756;-68
2024/04/15 11:22:49;;;;;;;0.60;0.50;;;17.30;56.70;;;;;;5391611;26;20559;-67
2024/04/15 11:25:19;;;;;;;0.73;0.73;;;17.30;56.40;;;;;;5370532;26;20246;-67
2024/04/15 11:27:47;;;;;;;0.50;0.50;;;17.30;56.20;;;;;;5369658;26;20349;-67
2024/04/15 11:30:24;;;;;;;0.40;0.40;;;17.30;56.00;;;;;;5369880;26;20233;-67
2024/04/15 11:32:54;;;;;;;0.90;0.60;;;17.30;56.30;;;;;;5359432;26;20276;-66
2024/04/15 11:35:23;;;;;;;0.55;0.50;;;17.30;56.00;;;;;;5371025;26;20730;-67
2024/04/15 11:37:52;;;;;;;0.50;0.50;;;17.50;56.00;;;;;;5379851;26;20536;-67
2024/04/15 11:40:21;;;;;;;0.40;0.40;;;17.60;55.60;;;;;;5376969;26;20243;-67
2024/04/15 11:42:47;;;;;;;0.43;0.43;;;17.70;55.50;;;;;;5368605;26;20275;-66
2024/04/15 11:45:17;;;;;;;0.47;0.47;;;17.70;55.30;;;;;;5367957;26;20293;-67
2024/04/15 11:47:43;;;;;;;0.50;0.50;;;17.70;55.30;;;;;;5371991;26;20825;-67
2024/04/15 11:50:15;;;;;;;2.13;0.63;;;17.80;55.20;;;;;;5376289;26;20268;-68
2024/04/15 11:52:41;;;;;;;1.02;0.90;;;17.70;54.60;;;;;;5368435;26;20667;-68
2024/04/15 11:55:17;;;;;;;1.13;0.80;;;17.60;55.50;;;;;;5373429;26;20305;-68
2024/04/15 11:57:44;;;;;;;2.20;1.10;;;17.50;56.50;;;;;;5372065;26;20235;-68
2024/04/15 12:00:14;;;;;;;0.83;0.80;;;17.30;57.90;;;;;;5371303;26;20631;-68
2024/04/15 12:02:40;;;;;;;3.03;1.13;;;17.10;58.40;;;;;;5371463;26;20284;-68
2024/04/15 12:05:10;;;;;;;0.67;0.67;;;17.00;59.10;;;;;;5364867;26;20242;-65
2024/04/15 12:07:39;;;;;;;3.53;1.00;;;16.90;59.70;;;;;;5375967;26;20328;-66
2024/04/15 12:10:09;;;;;;;1.97;1.03;;;16.90;60.70;;;;;;5366329;26;20732;-67
2024/04/15 12:12:37;;;;;;;3.00;1.30;;;16.70;62.10;;;;;;5368453;26;20888;-67
2024/04/15 12:15:09;;;;;;;4.33;1.57;;;16.50;62.60;;;;;;5362140;26;20716;-67
2024/04/15 12:17:36;;;;;;;1.50;0.90;;;16.20;63.60;;;;;;5368573;26;20263;-67
2024/04/15 12:20:05;;;;;;;2.33;1.20;;;15.90;64.10;;;;;;5366858;26;20243;-66
2024/04/15 12:22:32;;;;;;;3.47;1.10;;;15.80;64.90;;;;;;5368549;26;20249;-67
2024/04/15 12:25:03;;;;;;;1.50;1.00;;;15.80;65.10;;;;;;5359522;26;20232;-67
2024/04/15 12:27:29;;;;;;;2.93;1.33;;;15.80;65.10;;;;;;5358370;26;20240;-66
2024/04/15 12:29:59;;;;;;;1.70;1.00;;;15.80;65.40;;;;;;5358504;26;20655;-66
2024/04/15 12:32:25;;;;;;;2.03;0.90;;;15.70;65.80;;;;;;5364714;26;20679;-68
2024/04/15 12:34:54;;;;;;;2.60;1.07;;;15.60;65.90;;;;;;5366840;26;20232;-67
2024/04/15 12:37:20;;;;;;;1.97;1.20;;;15.70;66.10;;;;;;5364761;26;20275;-67
2024/04/15 12:39:49;;;;;;;7.00;1.77;;;15.70;66.80;;;;;;5374580;26;20283;-67
2024/04/15 12:42:18;;;;;;;3.40;1.20;;;15.70;68.40;;;;;;5363860;26;20229;-67
2024/04/15 12:44:46;;;;;;;2.30;1.10;;;15.60;68.60;;;;;;5350145;26;20249;-67
2024/04/15 12:47:13;;;;;;;3.37;1.20;;;15.50;68.60;;;;;;5373913;26;20232;-67
2024/04/15 12:49:41;;;;;;;1.27;0.63;;;15.40;68.90;;;;;;5375995;26;20270;-67
2024/04/15 12:52:07;;;;;;;2.33;0.70;;;15.40;69.10;;;;;;5372419;26;20229;-67
2024/04/15 12:54:36;;;;;;;2.13;0.90;;;15.40;69.10;;;;;;5376284;26;20785;-67
2024/04/15 12:57:03;;;;;;;2.50;1.10;;;15.40;69.50;;;;;;5371064;26;20343;-67